sensor_id;sensor_type;location;lat;lon;timestamp;P1;durP1;ratioP1;P2;durP2;ratioP2
72037;SDS011;59900;50.788;12.904;2023-08-30T00:02:14;8.57;;;4.40;;
72037;SDS011;59900;50.788;12.904;2023-08-30T00:04:39;8.33;;;4.30;;
72037;SDS011;59900;50.788;12.904;2023-08-30T00:07:06;7.90;;;4.47;;
72037;SDS011;59900;50.788;12.904;2023-08-30T00:09:31;8.63;;;4.60;;
72037;SDS011;59900;50.788;12.904;2023-08-30T00:11:57;7.00;;;4.20;;
72037;SDS011;59900;50.788;12.904;2023-08-30T00:14:22;7.50;;;4.30;;
72037;SDS011;59900;50.788;12.904;2023-08-30T00:16:47;9.23;;;5.40;;
72037;SDS011;59900;50.788;12.904;2023-08-30T00:19:13;8.00;;;4.47;;
72037;SDS011;59900;50.788;12.904;2023-08-30T00:21:38;8.17;;;4.33;;
72037;SDS011;59900;50.788;12.904;2023-08-30T00:24:03;10.07;;;4.13;;
72037;SDS011;59900;50.788;12.904;2023-08-30T00:26:29;7.37;;;3.90;;
72037;SDS011;59900;50.788;12.904;2023-08-30T00:28:54;8.93;;;4.40;;
72037;SDS011;59900;50.788;12.904;2023-08-30T00:31:20;8.90;;;4.33;;
72037;SDS011;59900;50.788;12.904;2023-08-30T00:33:45;7.80;;;4.27;;
72037;SDS011;59900;50.788;12.904;2023-08-30T00:36:10;8.60;;;4.63;;
72037;SDS011;59900;50.788;12.904;2023-08-30T00:38:36;9.83;;;4.90;;
72037;SDS011;59900;50.788;12.904;2023-08-30T00:41:01;10.40;;;4.33;;
72037;SDS011;59900;50.788;12.904;2023-08-30T00:43:26;7.80;;;4.47;;
72037;SDS011;59900;50.788;12.904;2023-08-30T00:45:52;8.83;;;4.70;;
72037;SDS011;59900;50.788;12.904;2023-08-30T00:48:17;12.05;;;4.63;;
72037;SDS011;59900;50.788;12.904;2023-08-30T00:50:44;8.80;;;5.17;;
72037;SDS011;59900;50.788;12.904;2023-08-30T00:53:10;9.25;;;4.72;;
72037;SDS011;59900;50.788;12.904;2023-08-30T00:55:36;10.93;;;5.38;;
72037;SDS011;59900;50.788;12.904;2023-08-30T00:58:02;13.18;;;5.82;;
72037;SDS011;59900;50.788;12.904;2023-08-30T01:00:29;10.50;;;5.53;;
72037;SDS011;59900;50.788;12.904;2023-08-30T01:02:55;9.87;;;4.97;;
72037;SDS011;59900;50.788;12.904;2023-08-30T01:05:21;11.07;;;5.70;;
72037;SDS011;59900;50.788;12.904;2023-08-30T01:07:46;10.77;;;5.43;;
72037;SDS011;59900;50.788;12.904;2023-08-30T01:10:11;12.23;;;5.90;;
72037;SDS011;59900;50.788;12.904;2023-08-30T01:12:38;10.43;;;5.38;;
72037;SDS011;59900;50.788;12.904;2023-08-30T01:15:19;11.13;;;5.60;;
72037;SDS011;59900;50.788;12.904;2023-08-30T01:17:45;11.75;;;5.47;;
72037;SDS011;59900;50.788;12.904;2023-08-30T01:20:17;10.98;;;5.80;;
72037;SDS011;59900;50.788;12.904;2023-08-30T01:28:22;12.57;;;6.07;;
72037;SDS011;59900;50.788;12.904;2023-08-30T01:30:51;12.57;;;5.63;;
72037;SDS011;59900;50.788;12.904;2023-08-30T01:33:19;11.70;;;6.45;;
72037;SDS011;59900;50.788;12.904;2023-08-30T01:35:45;12.20;;;5.82;;
72037;SDS011;59900;50.788;12.904;2023-08-30T01:38:11;12.70;;;6.60;;
72037;SDS011;59900;50.788;12.904;2023-08-30T01:40:39;12.90;;;6.40;;
72037;SDS011;59900;50.788;12.904;2023-08-30T01:43:07;13.10;;;6.63;;
72037;SDS011;59900;50.788;12.904;2023-08-30T01:45:34;10.65;;;5.72;;
72037;SDS011;59900;50.788;12.904;2023-08-30T01:48:01;12.63;;;6.07;;
72037;SDS011;59900;50.788;12.904;2023-08-30T01:50:28;12.37;;;6.40;;
72037;SDS011;59900;50.788;12.904;2023-08-30T01:52:54;14.50;;;6.13;;
72037;SDS011;59900;50.788;12.904;2023-08-30T01:55:21;11.02;;;6.95;;
72037;SDS011;59900;50.788;12.904;2023-08-30T01:57:47;12.32;;;6.28;;
72037;SDS011;59900;50.788;12.904;2023-08-30T02:00:13;11.47;;;6.50;;
72037;SDS011;59900;50.788;12.904;2023-08-30T02:02:39;12.85;;;6.28;;
72037;SDS011;59900;50.788;12.904;2023-08-30T02:05:04;10.50;;;5.90;;
72037;SDS011;59900;50.788;12.904;2023-08-30T02:07:48;13.20;;;6.00;;
72037;SDS011;59900;50.788;12.904;2023-08-30T02:10:35;10.50;;;5.70;;
72037;SDS011;59900;50.788;12.904;2023-08-30T02:13:05;11.18;;;5.82;;
72037;SDS011;59900;50.788;12.904;2023-08-30T02:15:32;10.52;;;6.15;;
72037;SDS011;59900;50.788;12.904;2023-08-30T02:18:00;9.87;;;5.47;;
72037;SDS011;59900;50.788;12.904;2023-08-30T02:20:28;9.68;;;5.32;;
72037;SDS011;59900;50.788;12.904;2023-08-30T02:22:54;9.10;;;5.27;;
72037;SDS011;59900;50.788;12.904;2023-08-30T02:25:23;11.05;;;5.43;;
72037;SDS011;59900;50.788;12.904;2023-08-30T02:27:49;10.00;;;5.07;;
72037;SDS011;59900;50.788;12.904;2023-08-30T02:30:14;8.90;;;4.83;;
72037;SDS011;59900;50.788;12.904;2023-08-30T02:32:39;10.30;;;5.43;;
72037;SDS011;59900;50.788;12.904;2023-08-30T02:35:05;10.97;;;5.93;;
72037;SDS011;59900;50.788;12.904;2023-08-30T02:37:30;11.85;;;5.30;;
72037;SDS011;59900;50.788;12.904;2023-08-30T02:39:55;12.33;;;5.40;;
72037;SDS011;59900;50.788;12.904;2023-08-30T02:42:21;10.70;;;5.93;;
72037;SDS011;59900;50.788;12.904;2023-08-30T02:44:46;11.33;;;5.73;;
72037;SDS011;59900;50.788;12.904;2023-08-30T02:47:11;11.00;;;5.83;;
72037;SDS011;59900;50.788;12.904;2023-08-30T02:49:37;11.87;;;6.40;;
72037;SDS011;59900;50.788;12.904;2023-08-30T02:52:02;10.93;;;5.60;;
72037;SDS011;59900;50.788;12.904;2023-08-30T02:54:27;12.87;;;6.23;;
72037;SDS011;59900;50.788;12.904;2023-08-30T02:56:53;12.47;;;5.80;;
72037;SDS011;59900;50.788;12.904;2023-08-30T02:59:18;11.20;;;6.13;;
72037;SDS011;59900;50.788;12.904;2023-08-30T03:01:44;10.37;;;5.97;;
72037;SDS011;59900;50.788;12.904;2023-08-30T03:04:09;11.73;;;5.77;;
72037;SDS011;59900;50.788;12.904;2023-08-30T03:06:34;11.30;;;5.77;;
72037;SDS011;59900;50.788;12.904;2023-08-30T03:09:01;9.80;;;5.53;;
72037;SDS011;59900;50.788;12.904;2023-08-30T03:11:27;10.82;;;5.65;;
72037;SDS011;59900;50.788;12.904;2023-08-30T03:13:53;10.13;;;5.53;;
72037;SDS011;59900;50.788;12.904;2023-08-30T03:16:19;10.60;;;5.93;;
72037;SDS011;59900;50.788;12.904;2023-08-30T03:18:45;12.67;;;5.83;;
72037;SDS011;59900;50.788;12.904;2023-08-30T03:21:10;9.60;;;6.00;;
72037;SDS011;59900;50.788;12.904;2023-08-30T03:23:36;11.47;;;6.10;;
72037;SDS011;59900;50.788;12.904;2023-08-30T03:26:08;10.63;;;5.78;;
72037;SDS011;59900;50.788;12.904;2023-08-30T03:28:33;11.07;;;6.40;;
72037;SDS011;59900;50.788;12.904;2023-08-30T03:30:58;13.83;;;6.30;;
72037;SDS011;59900;50.788;12.904;2023-08-30T03:33:24;11.37;;;6.00;;
72037;SDS011;59900;50.788;12.904;2023-08-30T03:35:49;12.93;;;6.07;;
72037;SDS011;59900;50.788;12.904;2023-08-30T03:38:14;11.00;;;6.37;;
72037;SDS011;59900;50.788;12.904;2023-08-30T03:40:39;11.30;;;6.27;;
72037;SDS011;59900;50.788;12.904;2023-08-30T03:43:05;12.27;;;6.90;;
72037;SDS011;59900;50.788;12.904;2023-08-30T03:45:34;12.53;;;6.27;;
72037;SDS011;59900;50.788;12.904;2023-08-30T03:48:00;11.27;;;6.47;;
72037;SDS011;59900;50.788;12.904;2023-08-30T03:50:25;13.60;;;7.10;;
72037;SDS011;59900;50.788;12.904;2023-08-30T03:52:50;14.67;;;7.10;;
72037;SDS011;59900;50.788;12.904;2023-08-30T03:55:15;13.70;;;7.83;;
72037;SDS011;59900;50.788;12.904;2023-08-30T03:57:41;12.97;;;6.77;;
72037;SDS011;59900;50.788;12.904;2023-08-30T04:00:06;14.63;;;6.87;;
72037;SDS011;59900;50.788;12.904;2023-08-30T04:02:32;14.05;;;7.55;;
72037;SDS011;59900;50.788;12.904;2023-08-30T04:04:57;13.67;;;7.43;;
72037;SDS011;59900;50.788;12.904;2023-08-30T04:07:22;14.30;;;7.33;;
72037;SDS011;59900;50.788;12.904;2023-08-30T04:09:48;13.50;;;6.93;;
72037;SDS011;59900;50.788;12.904;2023-08-30T04:12:13;12.70;;;7.47;;
72037;SDS011;59900;50.788;12.904;2023-08-30T04:14:38;12.33;;;6.57;;
72037;SDS011;59900;50.788;12.904;2023-08-30T04:17:03;15.07;;;7.27;;
72037;SDS011;59900;50.788;12.904;2023-08-30T04:19:29;15.00;;;7.33;;
72037;SDS011;59900;50.788;12.904;2023-08-30T04:21:54;12.00;;;7.00;;
72037;SDS011;59900;50.788;12.904;2023-08-30T04:24:19;12.97;;;7.30;;
72037;SDS011;59900;50.788;12.904;2023-08-30T04:26:44;15.20;;;6.90;;
72037;SDS011;59900;50.788;12.904;2023-08-30T04:29:10;13.47;;;7.53;;
72037;SDS011;59900;50.788;12.904;2023-08-30T04:31:35;13.63;;;6.93;;
72037;SDS011;59900;50.788;12.904;2023-08-30T04:34:00;11.40;;;6.60;;
72037;SDS011;59900;50.788;12.904;2023-08-30T04:36:25;13.47;;;6.60;;
72037;SDS011;59900;50.788;12.904;2023-08-30T04:38:51;13.97;;;6.80;;
72037;SDS011;59900;50.788;12.904;2023-08-30T04:41:16;13.47;;;7.50;;
72037;SDS011;59900;50.788;12.904;2023-08-30T04:43:41;16.03;;;7.57;;
72037;SDS011;59900;50.788;12.904;2023-08-30T04:46:06;12.70;;;6.70;;
72037;SDS011;59900;50.788;12.904;2023-08-30T04:48:32;12.33;;;7.27;;
72037;SDS011;59900;50.788;12.904;2023-08-30T04:51:01;14.10;;;7.77;;
72037;SDS011;59900;50.788;12.904;2023-08-30T04:53:27;12.77;;;7.35;;
72037;SDS011;59900;50.788;12.904;2023-08-30T04:55:53;14.23;;;6.80;;
72037;SDS011;59900;50.788;12.904;2023-08-30T04:58:18;13.50;;;7.10;;
72037;SDS011;59900;50.788;12.904;2023-08-30T05:00:43;13.50;;;6.97;;
72037;SDS011;59900;50.788;12.904;2023-08-30T05:03:09;14.67;;;6.93;;
72037;SDS011;59900;50.788;12.904;2023-08-30T05:05:34;12.77;;;6.40;;
72037;SDS011;59900;50.788;12.904;2023-08-30T05:07:59;14.13;;;6.75;;
72037;SDS011;59900;50.788;12.904;2023-08-30T05:10:25;12.13;;;6.40;;
72037;SDS011;59900;50.788;12.904;2023-08-30T05:12:50;12.50;;;6.97;;
72037;SDS011;59900;50.788;12.904;2023-08-30T05:15:17;11.52;;;6.30;;
72037;SDS011;59900;50.788;12.904;2023-08-30T05:17:42;11.50;;;6.70;;
72037;SDS011;59900;50.788;12.904;2023-08-30T05:20:08;10.77;;;6.37;;
72037;SDS011;59900;50.788;12.904;2023-08-30T05:22:33;11.77;;;6.37;;
72037;SDS011;59900;50.788;12.904;2023-08-30T05:24:59;11.80;;;6.83;;
72037;SDS011;59900;50.788;12.904;2023-08-30T05:27:24;13.17;;;6.77;;
72037;SDS011;59900;50.788;12.904;2023-08-30T05:29:49;14.00;;;6.67;;
72037;SDS011;59900;50.788;12.904;2023-08-30T05:32:15;12.17;;;7.03;;
72037;SDS011;59900;50.788;12.904;2023-08-30T05:34:40;12.27;;;6.40;;
72037;SDS011;59900;50.788;12.904;2023-08-30T05:37:05;10.83;;;5.73;;
72037;SDS011;59900;50.788;12.904;2023-08-30T05:39:31;12.73;;;6.70;;
72037;SDS011;59900;50.788;12.904;2023-08-30T05:41:56;9.63;;;6.13;;
72037;SDS011;59900;50.788;12.904;2023-08-30T05:44:22;10.83;;;5.77;;
72037;SDS011;59900;50.788;12.904;2023-08-30T05:46:47;12.40;;;5.97;;
72037;SDS011;59900;50.788;12.904;2023-08-30T05:49:12;9.07;;;5.60;;
72037;SDS011;59900;50.788;12.904;2023-08-30T05:51:38;10.87;;;5.57;;
72037;SDS011;59900;50.788;12.904;2023-08-30T05:54:03;10.07;;;5.50;;
72037;SDS011;59900;50.788;12.904;2023-08-30T05:56:29;10.87;;;5.87;;
72037;SDS011;59900;50.788;12.904;2023-08-30T05:58:54;10.27;;;5.47;;
72037;SDS011;59900;50.788;12.904;2023-08-30T06:01:19;11.23;;;5.73;;
72037;SDS011;59900;50.788;12.904;2023-08-30T06:03:44;9.40;;;5.90;;
72037;SDS011;59900;50.788;12.904;2023-08-30T06:06:11;10.57;;;5.40;;
72037;SDS011;59900;50.788;12.904;2023-08-30T06:08:36;8.57;;;5.00;;
72037;SDS011;59900;50.788;12.904;2023-08-30T06:11:01;9.63;;;5.43;;
72037;SDS011;59900;50.788;12.904;2023-08-30T06:13:27;9.77;;;5.77;;
72037;SDS011;59900;50.788;12.904;2023-08-30T06:15:52;11.27;;;6.43;;
72037;SDS011;59900;50.788;12.904;2023-08-30T06:18:18;11.00;;;5.60;;
72037;SDS011;59900;50.788;12.904;2023-08-30T06:20:44;9.30;;;4.80;;
72037;SDS011;59900;50.788;12.904;2023-08-30T06:23:09;10.83;;;5.63;;
72037;SDS011;59900;50.788;12.904;2023-08-30T06:25:35;9.17;;;5.43;;
72037;SDS011;59900;50.788;12.904;2023-08-30T06:28:00;9.43;;;5.53;;
72037;SDS011;59900;50.788;12.904;2023-08-30T06:30:27;12.18;;;5.78;;
72037;SDS011;59900;50.788;12.904;2023-08-30T06:32:54;9.05;;;5.35;;
72037;SDS011;59900;50.788;12.904;2023-08-30T06:35:20;12.35;;;5.60;;
72037;SDS011;59900;50.788;12.904;2023-08-30T06:37:45;11.97;;;5.50;;
72037;SDS011;59900;50.788;12.904;2023-08-30T06:40:11;11.97;;;5.63;;
72037;SDS011;59900;50.788;12.904;2023-08-30T06:42:36;10.63;;;5.53;;
72037;SDS011;59900;50.788;12.904;2023-08-30T06:45:01;9.53;;;5.33;;
72037;SDS011;59900;50.788;12.904;2023-08-30T06:47:28;9.63;;;6.32;;
72037;SDS011;59900;50.788;12.904;2023-08-30T06:49:53;8.20;;;4.97;;
72037;SDS011;59900;50.788;12.904;2023-08-30T06:52:18;11.57;;;6.10;;
72037;SDS011;59900;50.788;12.904;2023-08-30T06:54:44;9.10;;;5.13;;
72037;SDS011;59900;50.788;12.904;2023-08-30T06:57:09;9.63;;;5.30;;
72037;SDS011;59900;50.788;12.904;2023-08-30T06:59:34;10.02;;;5.30;;
72037;SDS011;59900;50.788;12.904;2023-08-30T07:02:00;10.63;;;5.77;;
72037;SDS011;59900;50.788;12.904;2023-08-30T07:04:26;12.50;;;5.95;;
72037;SDS011;59900;50.788;12.904;2023-08-30T07:06:53;9.43;;;5.35;;
72037;SDS011;59900;50.788;12.904;2023-08-30T07:09:18;10.87;;;5.83;;
72037;SDS011;59900;50.788;12.904;2023-08-30T07:11:44;8.20;;;5.13;;
72037;SDS011;59900;50.788;12.904;2023-08-30T07:14:10;8.65;;;5.50;;
72037;SDS011;59900;50.788;12.904;2023-08-30T07:16:35;8.80;;;5.50;;
72037;SDS011;59900;50.788;12.904;2023-08-30T07:19:01;10.33;;;6.03;;
72037;SDS011;59900;50.788;12.904;2023-08-30T07:21:27;11.63;;;6.07;;
72037;SDS011;59900;50.788;12.904;2023-08-30T07:23:52;10.43;;;5.83;;
72037;SDS011;59900;50.788;12.904;2023-08-30T07:26:17;8.67;;;5.40;;
72037;SDS011;59900;50.788;12.904;2023-08-30T07:28:42;9.57;;;5.50;;
72037;SDS011;59900;50.788;12.904;2023-08-30T07:31:08;9.07;;;5.77;;
72037;SDS011;59900;50.788;12.904;2023-08-30T07:33:33;9.93;;;5.10;;
72037;SDS011;59900;50.788;12.904;2023-08-30T07:35:58;10.30;;;5.90;;
72037;SDS011;59900;50.788;12.904;2023-08-30T07:38:24;10.55;;;5.85;;
72037;SDS011;59900;50.788;12.904;2023-08-30T07:40:49;9.73;;;5.50;;
72037;SDS011;59900;50.788;12.904;2023-08-30T07:43:15;8.93;;;5.63;;
72037;SDS011;59900;50.788;12.904;2023-08-30T07:45:40;8.83;;;4.90;;
72037;SDS011;59900;50.788;12.904;2023-08-30T07:48:05;8.53;;;5.50;;
72037;SDS011;59900;50.788;12.904;2023-08-30T07:50:31;9.60;;;4.97;;
72037;SDS011;59900;50.788;12.904;2023-08-30T07:52:56;10.10;;;5.00;;
72037;SDS011;59900;50.788;12.904;2023-08-30T07:55:21;7.80;;;4.83;;
72037;SDS011;59900;50.788;12.904;2023-08-30T07:57:47;7.50;;;4.77;;
72037;SDS011;59900;50.788;12.904;2023-08-30T08:00:12;6.93;;;4.03;;
72037;SDS011;59900;50.788;12.904;2023-08-30T08:02:39;8.75;;;4.20;;
72037;SDS011;59900;50.788;12.904;2023-08-30T08:05:04;8.90;;;3.97;;
72037;SDS011;59900;50.788;12.904;2023-08-30T08:07:30;8.13;;;4.00;;
72037;SDS011;59900;50.788;12.904;2023-08-30T08:09:56;7.03;;;3.87;;
72037;SDS011;59900;50.788;12.904;2023-08-30T08:12:25;6.90;;;4.25;;
72037;SDS011;59900;50.788;12.904;2023-08-30T08:14:51;8.37;;;4.13;;
72037;SDS011;59900;50.788;12.904;2023-08-30T08:17:16;7.75;;;3.72;;
72037;SDS011;59900;50.788;12.904;2023-08-30T08:19:42;9.90;;;5.53;;
72037;SDS011;59900;50.788;12.904;2023-08-30T08:22:08;8.70;;;4.70;;
72037;SDS011;59900;50.788;12.904;2023-08-30T08:24:34;7.40;;;4.55;;
72037;SDS011;59900;50.788;12.904;2023-08-30T08:26:59;13.97;;;5.23;;
72037;SDS011;59900;50.788;12.904;2023-08-30T08:29:26;7.27;;;3.90;;
72037;SDS011;59900;50.788;12.904;2023-08-30T08:31:52;7.35;;;3.67;;
72037;SDS011;59900;50.788;12.904;2023-08-30T08:34:17;7.93;;;4.10;;
72037;SDS011;59900;50.788;12.904;2023-08-30T08:36:42;6.93;;;3.87;;
72037;SDS011;59900;50.788;12.904;2023-08-30T08:39:08;7.07;;;3.60;;
72037;SDS011;59900;50.788;12.904;2023-08-30T08:44:06;7.15;;;3.38;;
72037;SDS011;59900;50.788;12.904;2023-08-30T08:46:33;5.80;;;3.23;;
72037;SDS011;59900;50.788;12.904;2023-08-30T08:49:01;5.88;;;3.10;;
72037;SDS011;59900;50.788;12.904;2023-08-30T08:51:39;5.20;;;2.50;;
72037;SDS011;59900;50.788;12.904;2023-08-30T08:54:05;4.85;;;2.80;;
72037;SDS011;59900;50.788;12.904;2023-08-30T08:56:31;6.13;;;3.10;;
72037;SDS011;59900;50.788;12.904;2023-08-30T08:58:57;5.63;;;3.10;;
72037;SDS011;59900;50.788;12.904;2023-08-30T09:01:24;6.07;;;3.05;;
72037;SDS011;59900;50.788;12.904;2023-08-30T09:03:50;6.77;;;2.90;;
72037;SDS011;59900;50.788;12.904;2023-08-30T09:06:16;5.20;;;2.22;;
72037;SDS011;59900;50.788;12.904;2023-08-30T09:08:42;4.70;;;2.45;;
72037;SDS011;59900;50.788;12.904;2023-08-30T09:11:07;4.17;;;2.00;;
72037;SDS011;59900;50.788;12.904;2023-08-30T09:13:32;5.83;;;2.37;;
72037;SDS011;59900;50.788;12.904;2023-08-30T09:15:58;4.73;;;1.80;;
72037;SDS011;59900;50.788;12.904;2023-08-30T09:18:24;4.15;;;2.20;;
72037;SDS011;59900;50.788;12.904;2023-08-30T09:20:52;8.00;;;2.22;;
72037;SDS011;59900;50.788;12.904;2023-08-30T09:23:18;5.17;;;2.83;;
72037;SDS011;59900;50.788;12.904;2023-08-30T09:25:45;5.78;;;2.40;;
72037;SDS011;59900;50.788;12.904;2023-08-30T09:28:11;3.83;;;1.93;;
72037;SDS011;59900;50.788;12.904;2023-08-30T09:30:36;5.32;;;2.50;;
72037;SDS011;59900;50.788;12.904;2023-08-30T09:33:02;5.20;;;2.20;;
72037;SDS011;59900;50.788;12.904;2023-08-30T09:35:27;4.30;;;2.50;;
72037;SDS011;59900;50.788;12.904;2023-08-30T09:37:53;8.27;;;2.77;;
72037;SDS011;59900;50.788;12.904;2023-08-30T09:40:21;7.38;;;2.67;;
72037;SDS011;59900;50.788;12.904;2023-08-30T09:42:47;7.73;;;2.53;;
72037;SDS011;59900;50.788;12.904;2023-08-30T09:47:48;6.07;;;3.13;;
72037;SDS011;59900;50.788;12.904;2023-08-30T09:50:15;7.47;;;3.63;;
72037;SDS011;59900;50.788;12.904;2023-08-30T09:52:42;6.10;;;3.40;;
72037;SDS011;59900;50.788;12.904;2023-08-30T09:55:08;6.30;;;2.70;;
72037;SDS011;59900;50.788;12.904;2023-08-30T09:57:34;5.50;;;2.90;;
72037;SDS011;59900;50.788;12.904;2023-08-30T10:00:00;5.95;;;3.03;;
72037;SDS011;59900;50.788;12.904;2023-08-30T10:02:28;5.75;;;2.97;;
72037;SDS011;59900;50.788;12.904;2023-08-30T10:04:55;5.30;;;2.65;;
72037;SDS011;59900;50.788;12.904;2023-08-30T10:07:22;5.63;;;3.30;;
72037;SDS011;59900;50.788;12.904;2023-08-30T10:09:49;4.67;;;2.47;;
72037;SDS011;59900;50.788;12.904;2023-08-30T10:12:15;6.63;;;3.22;;
72037;SDS011;59900;50.788;12.904;2023-08-30T10:14:41;5.25;;;2.80;;
72037;SDS011;59900;50.788;12.904;2023-08-30T10:17:07;5.93;;;3.03;;
72037;SDS011;59900;50.788;12.904;2023-08-30T10:19:37;5.82;;;3.33;;
72037;SDS011;59900;50.788;12.904;2023-08-30T10:22:04;6.07;;;3.22;;
72037;SDS011;59900;50.788;12.904;2023-08-30T10:24:37;5.50;;;3.08;;
72037;SDS011;59900;50.788;12.904;2023-08-30T10:27:06;9.53;;;3.23;;
72037;SDS011;59900;50.788;12.904;2023-08-30T10:29:33;5.90;;;2.88;;
72037;SDS011;59900;50.788;12.904;2023-08-30T10:32:09;6.38;;;3.40;;
72037;SDS011;59900;50.788;12.904;2023-08-30T10:34:35;7.28;;;3.92;;
72037;SDS011;59900;50.788;12.904;2023-08-30T10:37:03;6.38;;;3.40;;
72037;SDS011;59900;50.788;12.904;2023-08-30T10:42:01;8.00;;;3.28;;
72037;SDS011;59900;50.788;12.904;2023-08-30T10:44:33;6.03;;;3.65;;
72037;SDS011;59900;50.788;12.904;2023-08-30T10:46:58;6.10;;;3.07;;
72037;SDS011;59900;50.788;12.904;2023-08-30T10:49:27;6.45;;;2.35;;
72037;SDS011;59900;50.788;12.904;2023-08-30T10:51:56;4.40;;;2.20;;
72037;SDS011;59900;50.788;12.904;2023-08-30T10:54:22;4.90;;;2.22;;
72037;SDS011;59900;50.788;12.904;2023-08-30T10:56:54;7.63;;;2.45;;
72037;SDS011;59900;50.788;12.904;2023-08-30T10:59:27;5.50;;;2.83;;
72037;SDS011;59900;50.788;12.904;2023-08-30T11:01:54;6.55;;;3.17;;
72037;SDS011;59900;50.788;12.904;2023-08-30T11:04:21;6.28;;;3.13;;
72037;SDS011;59900;50.788;12.904;2023-08-30T11:06:47;6.18;;;3.33;;
72037;SDS011;59900;50.788;12.904;2023-08-30T11:09:14;6.07;;;2.80;;
72037;SDS011;59900;50.788;12.904;2023-08-30T11:11:42;4.90;;;3.00;;
72037;SDS011;59900;50.788;12.904;2023-08-30T11:14:08;6.97;;;2.70;;
72037;SDS011;59900;50.788;12.904;2023-08-30T11:16:34;5.55;;;2.67;;
72037;SDS011;59900;50.788;12.904;2023-08-30T11:19:01;6.03;;;2.60;;
72037;SDS011;59900;50.788;12.904;2023-08-30T11:21:28;5.93;;;2.37;;
72037;SDS011;59900;50.788;12.904;2023-08-30T11:23:57;4.05;;;2.10;;
72037;SDS011;59900;50.788;12.904;2023-08-30T11:26:23;4.53;;;2.10;;
72037;SDS011;59900;50.788;12.904;2023-08-30T11:28:49;3.60;;;2.03;;
72037;SDS011;59900;50.788;12.904;2023-08-30T11:31:20;4.55;;;2.03;;
72037;SDS011;59900;50.788;12.904;2023-08-30T11:33:52;4.40;;;2.42;;
72037;SDS011;59900;50.788;12.904;2023-08-30T11:36:20;4.75;;;2.28;;
72037;SDS011;59900;50.788;12.904;2023-08-30T11:38:51;6.70;;;2.10;;
72037;SDS011;59900;50.788;12.904;2023-08-30T11:41:17;9.20;;;2.00;;
72037;SDS011;59900;50.788;12.904;2023-08-30T11:43:47;5.50;;;2.03;;
72037;SDS011;59900;50.788;12.904;2023-08-30T11:46:13;4.97;;;1.90;;
72037;SDS011;59900;50.788;12.904;2023-08-30T11:48:39;5.17;;;2.17;;
72037;SDS011;59900;50.788;12.904;2023-08-30T11:51:06;4.15;;;2.30;;
72037;SDS011;59900;50.788;12.904;2023-08-30T11:53:32;4.30;;;2.00;;
72037;SDS011;59900;50.788;12.904;2023-08-30T11:55:58;4.20;;;2.10;;
72037;SDS011;59900;50.788;12.904;2023-08-30T11:58:24;4.90;;;2.27;;
72037;SDS011;59900;50.788;12.904;2023-08-30T12:00:49;3.20;;;1.70;;
72037;SDS011;59900;50.788;12.904;2023-08-30T12:03:16;4.10;;;1.80;;
72037;SDS011;59900;50.788;12.904;2023-08-30T12:05:48;4.73;;;2.00;;
72037;SDS011;59900;50.788;12.904;2023-08-30T12:08:18;4.10;;;2.20;;
72037;SDS011;59900;50.788;12.904;2023-08-30T12:10:48;4.88;;;2.25;;
72037;SDS011;59900;50.788;12.904;2023-08-30T12:13:47;4.50;;;2.20;;
72037;SDS011;59900;50.788;12.904;2023-08-30T12:16:05;3.25;;;1.65;;
72037;SDS011;59900;50.788;12.904;2023-08-30T12:18:33;3.37;;;1.70;;
72037;SDS011;59900;50.788;12.904;2023-08-30T12:21:00;5.45;;;1.90;;
72037;SDS011;59900;50.788;12.904;2023-08-30T12:23:28;6.80;;;2.00;;
72037;SDS011;59900;50.788;12.904;2023-08-30T12:28:23;3.33;;;1.90;;
72037;SDS011;59900;50.788;12.904;2023-08-30T12:30:49;5.30;;;1.90;;
72037;SDS011;59900;50.788;12.904;2023-08-30T12:33:16;3.30;;;1.60;;
72037;SDS011;59900;50.788;12.904;2023-08-30T12:35:41;4.20;;;1.92;;
72037;SDS011;59900;50.788;12.904;2023-08-30T12:38:06;3.83;;;1.87;;
72037;SDS011;59900;50.788;12.904;2023-08-30T12:40:32;4.13;;;1.70;;
72037;SDS011;59900;50.788;12.904;2023-08-30T12:42:57;3.70;;;1.80;;
72037;SDS011;59900;50.788;12.904;2023-08-30T12:45:22;3.70;;;1.93;;
72037;SDS011;59900;50.788;12.904;2023-08-30T12:47:48;3.10;;;1.73;;
72037;SDS011;59900;50.788;12.904;2023-08-30T12:50:13;3.80;;;1.80;;
72037;SDS011;59900;50.788;12.904;2023-08-30T12:52:38;4.10;;;1.80;;
72037;SDS011;59900;50.788;12.904;2023-08-30T12:55:03;3.57;;;1.93;;
72037;SDS011;59900;50.788;12.904;2023-08-30T12:57:29;3.63;;;1.60;;
72037;SDS011;59900;50.788;12.904;2023-08-30T12:59:54;3.63;;;1.93;;
72037;SDS011;59900;50.788;12.904;2023-08-30T13:02:19;3.90;;;2.00;;
72037;SDS011;59900;50.788;12.904;2023-08-30T13:04:45;4.70;;;1.83;;
72037;SDS011;59900;50.788;12.904;2023-08-30T13:07:10;4.77;;;1.90;;
72037;SDS011;59900;50.788;12.904;2023-08-30T13:09:36;4.13;;;2.00;;
72037;SDS011;59900;50.788;12.904;2023-08-30T13:12:01;4.83;;;1.83;;
72037;SDS011;59900;50.788;12.904;2023-08-30T13:14:26;4.43;;;1.83;;
72037;SDS011;59900;50.788;12.904;2023-08-30T13:16:51;5.00;;;2.00;;
72037;SDS011;59900;50.788;12.904;2023-08-30T13:19:17;6.43;;;2.60;;
72037;SDS011;59900;50.788;12.904;2023-08-30T13:21:42;5.40;;;1.90;;
72037;SDS011;59900;50.788;12.904;2023-08-30T13:24:07;4.30;;;1.73;;
72037;SDS011;59900;50.788;12.904;2023-08-30T13:26:33;3.97;;;1.80;;
72037;SDS011;59900;50.788;12.904;2023-08-30T13:28:58;3.90;;;1.80;;
72037;SDS011;59900;50.788;12.904;2023-08-30T13:31:27;5.10;;;1.90;;
72037;SDS011;59900;50.788;12.904;2023-08-30T13:33:52;4.43;;;2.03;;
72037;SDS011;59900;50.788;12.904;2023-08-30T13:36:17;4.93;;;1.80;;
72037;SDS011;59900;50.788;12.904;2023-08-30T13:38:42;3.83;;;2.20;;
72037;SDS011;59900;50.788;12.904;2023-08-30T13:41:08;6.17;;;2.30;;
72037;SDS011;59900;50.788;12.904;2023-08-30T13:43:33;3.97;;;2.07;;
72037;SDS011;59900;50.788;12.904;2023-08-30T13:45:58;4.50;;;2.37;;
72037;SDS011;59900;50.788;12.904;2023-08-30T13:48:24;8.25;;;2.53;;
72037;SDS011;59900;50.788;12.904;2023-08-30T13:50:50;4.77;;;2.47;;
72037;SDS011;59900;50.788;12.904;2023-08-30T13:53:15;3.90;;;2.00;;
72037;SDS011;59900;50.788;12.904;2023-08-30T13:55:44;5.50;;;2.27;;
72037;SDS011;59900;50.788;12.904;2023-08-30T13:58:10;5.85;;;2.10;;
72037;SDS011;59900;50.788;12.904;2023-08-30T14:00:36;5.53;;;2.20;;
72037;SDS011;59900;50.788;12.904;2023-08-30T14:03:01;4.57;;;2.33;;
72037;SDS011;59900;50.788;12.904;2023-08-30T14:05:27;4.57;;;2.13;;
72037;SDS011;59900;50.788;12.904;2023-08-30T14:07:52;4.33;;;2.10;;
72037;SDS011;59900;50.788;12.904;2023-08-30T14:10:18;4.27;;;2.03;;
72037;SDS011;59900;50.788;12.904;2023-08-30T14:12:43;4.60;;;2.10;;
72037;SDS011;59900;50.788;12.904;2023-08-30T14:15:09;4.27;;;1.90;;
72037;SDS011;59900;50.788;12.904;2023-08-30T14:17:34;3.87;;;1.97;;
72037;SDS011;59900;50.788;12.904;2023-08-30T14:19:59;5.07;;;2.00;;
72037;SDS011;59900;50.788;12.904;2023-08-30T14:22:26;8.30;;;2.33;;
72037;SDS011;59900;50.788;12.904;2023-08-30T14:24:51;4.87;;;1.83;;
72037;SDS011;59900;50.788;12.904;2023-08-30T14:27:16;5.07;;;2.10;;
72037;SDS011;59900;50.788;12.904;2023-08-30T14:29:41;3.67;;;1.80;;
72037;SDS011;59900;50.788;12.904;2023-08-30T14:32:07;4.45;;;1.75;;
72037;SDS011;59900;50.788;12.904;2023-08-30T14:34:32;4.67;;;2.30;;
72037;SDS011;59900;50.788;12.904;2023-08-30T14:36:57;4.00;;;1.90;;
72037;SDS011;59900;50.788;12.904;2023-08-30T14:39:23;4.70;;;2.20;;